sensor_id;sensor_type;location;lat;lon;timestamp;temperature;humidity
15596;DHT22;7898;48.658;9.068;2022-08-07T00:00:56;14.60;99.90
15596;DHT22;7898;48.658;9.068;2022-08-07T00:03:23;14.60;99.90
15596;DHT22;7898;48.658;9.068;2022-08-07T00:05:50;14.60;99.90
15596;DHT22;7898;48.658;9.068;2022-08-07T00:08:18;14.60;99.90
15596;DHT22;7898;48.658;9.068;2022-08-07T00:10:47;14.50;99.90
15596;DHT22;7898;48.658;9.068;2022-08-07T00:13:14;14.40;99.90
15596;DHT22;7898;48.658;9.068;2022-08-07T00:15:43;14.40;99.90
15596;DHT22;7898;48.658;9.068;2022-08-07T00:18:10;14.30;99.90
15596;DHT22;7898;48.658;9.068;2022-08-07T00:20:37;14.30;99.90
15596;DHT22;7898;48.658;9.068;2022-08-07T00:23:05;14.20;99.90
15596;DHT22;7898;48.658;9.068;2022-08-07T00:25:32;14.20;99.90
15596;DHT22;7898;48.658;9.068;2022-08-07T00:27:59;14.10;99.90
15596;DHT22;7898;48.658;9.068;2022-08-07T00:30:26;14.00;99.90
15596;DHT22;7898;48.658;9.068;2022-08-07T00:32:55;14.00;99.90
15596;DHT22;7898;48.658;9.068;2022-08-07T00:35:23;13.90;99.90
15596;DHT22;7898;48.658;9.068;2022-08-07T00:37:50;13.90;99.90
15596;DHT22;7898;48.658;9.068;2022-08-07T00:40:17;13.80;99.90
15596;DHT22;7898;48.658;9.068;2022-08-07T00:42:44;13.80;99.90
15596;DHT22;7898;48.658;9.068;2022-08-07T00:45:11;13.80;99.90
15596;DHT22;7898;48.658;9.068;2022-08-07T00:47:38;13.80;99.90
15596;DHT22;7898;48.658;9.068;2022-08-07T00:50:07;13.80;99.90
15596;DHT22;7898;48.658;9.068;2022-08-07T00:52:35;13.80;99.90
15596;DHT22;7898;48.658;9.068;2022-08-07T00:55:04;13.70;99.90
15596;DHT22;7898;48.658;9.068;2022-08-07T00:57:32;13.70;99.90
15596;DHT22;7898;48.658;9.068;2022-08-07T00:59:59;13.60;99.90
15596;DHT22;7898;48.658;9.068;2022-08-07T01:02:26;13.60;99.90
15596;DHT22;7898;48.658;9.068;2022-08-07T01:04:56;13.50;99.90
15596;DHT22;7898;48.658;9.068;2022-08-07T01:07:25;13.50;99.90
15596;DHT22;7898;48.658;9.068;2022-08-07T01:09:52;13.40;99.90
15596;DHT22;7898;48.658;9.068;2022-08-07T01:12:19;13.40;99.90
15596;DHT22;7898;48.658;9.068;2022-08-07T01:14:47;13.40;99.90
15596;DHT22;7898;48.658;9.068;2022-08-07T01:17:14;13.30;99.90
15596;DHT22;7898;48.658;9.068;2022-08-07T01:19:41;13.20;99.90
15596;DHT22;7898;48.658;9.068;2022-08-07T01:22:10;13.10;99.90
15596;DHT22;7898;48.658;9.068;2022-08-07T01:24:38;13.10;99.90
15596;DHT22;7898;48.658;9.068;2022-08-07T01:27:06;13.10;99.90
15596;DHT22;7898;48.658;9.068;2022-08-07T01:29:33;13.10;99.90
15596;DHT22;7898;48.658;9.068;2022-08-07T01:32:01;13.00;99.90
15596;DHT22;7898;48.658;9.068;2022-08-07T01:34:30;13.00;99.90
15596;DHT22;7898;48.658;9.068;2022-08-07T01:36:57;13.00;99.90
15596;DHT22;7898;48.658;9.068;2022-08-07T01:39:26;12.90;99.90
15596;DHT22;7898;48.658;9.068;2022-08-07T01:41:53;12.90;99.90
15596;DHT22;7898;48.658;9.068;2022-08-07T01:44:20;12.80;99.90
15596;DHT22;7898;48.658;9.068;2022-08-07T01:46:47;12.80;99.90
15596;DHT22;7898;48.658;9.068;2022-08-07T01:49:14;12.80;99.90
15596;DHT22;7898;48.658;9.068;2022-08-07T01:51:42;12.80;99.90
15596;DHT22;7898;48.658;9.068;2022-08-07T01:54:12;12.80;99.90
15596;DHT22;7898;48.658;9.068;2022-08-07T01:56:46;12.80;99.90
15596;DHT22;7898;48.658;9.068;2022-08-07T01:59:17;12.80;99.90
15596;DHT22;7898;48.658;9.068;2022-08-07T02:01:50;12.80;99.90
15596;DHT22;7898;48.658;9.068;2022-08-07T02:04:24;12.70;99.90
15596;DHT22;7898;48.658;9.068;2022-08-07T02:06:54;12.70;99.90
15596;DHT22;7898;48.658;9.068;2022-08-07T02:09:23;12.70;99.90
15596;DHT22;7898;48.658;9.068;2022-08-07T02:11:54;12.80;99.90
15596;DHT22;7898;48.658;9.068;2022-08-07T02:14:24;12.80;99.90
15596;DHT22;7898;48.658;9.068;2022-08-07T02:16:53;12.80;99.90
15596;DHT22;7898;48.658;9.068;2022-08-07T02:19:22;12.80;99.90
15596;DHT22;7898;48.658;9.068;2022-08-07T02:21:50;12.80;99.90
15596;DHT22;7898;48.658;9.068;2022-08-07T02:24:18;12.90;99.90
15596;DHT22;7898;48.658;9.068;2022-08-07T02:26:45;12.90;99.90
15596;DHT22;7898;48.658;9.068;2022-08-07T02:29:15;13.00;99.90
15596;DHT22;7898;48.658;9.068;2022-08-07T02:31:43;13.00;99.90
15596;DHT22;7898;48.658;9.068;2022-08-07T02:34:11;13.00;99.90
15596;DHT22;7898;48.658;9.068;2022-08-07T02:36:39;13.00;99.90
15596;DHT22;7898;48.658;9.068;2022-08-07T02:39:07;13.00;99.90
15596;DHT22;7898;48.658;9.068;2022-08-07T02:41:35;13.00;99.90
15596;DHT22;7898;48.658;9.068;2022-08-07T02:44:04;13.00;99.90
15596;DHT22;7898;48.658;9.068;2022-08-07T02:46:32;13.00;99.90
15596;DHT22;7898;48.658;9.068;2022-08-07T02:49:02;13.00;99.90
15596;DHT22;7898;48.658;9.068;2022-08-07T02:51:31;13.00;99.90
15596;DHT22;7898;48.658;9.068;2022-08-07T02:54:00;13.00;99.90
15596;DHT22;7898;48.658;9.068;2022-08-07T02:56:30;12.90;99.90
15596;DHT22;7898;48.658;9.068;2022-08-07T02:59:01;12.90;99.90
15596;DHT22;7898;48.658;9.068;2022-08-07T03:01:32;12.90;99.90
15596;DHT22;7898;48.658;9.068;2022-08-07T03:03:59;12.90;99.90
15596;DHT22;7898;48.658;9.068;2022-08-07T03:06:28;12.80;99.90
15596;DHT22;7898;48.658;9.068;2022-08-07T03:08:56;12.70;99.90
15596;DHT22;7898;48.658;9.068;2022-08-07T03:11:23;12.60;99.90
15596;DHT22;7898;48.658;9.068;2022-08-07T03:13:50;12.60;99.90
15596;DHT22;7898;48.658;9.068;2022-08-07T03:16:18;12.60;99.90
15596;DHT22;7898;48.658;9.068;2022-08-07T03:18:46;12.60;99.90
15596;DHT22;7898;48.658;9.068;2022-08-07T03:21:14;12.50;99.90
15596;DHT22;7898;48.658;9.068;2022-08-07T03:23:41;12.50;99.90
15596;DHT22;7898;48.658;9.068;2022-08-07T03:26:10;12.40;99.90
15596;DHT22;7898;48.658;9.068;2022-08-07T03:28:40;12.30;99.90
15596;DHT22;7898;48.658;9.068;2022-08-07T03:31:08;12.30;99.90
15596;DHT22;7898;48.658;9.068;2022-08-07T03:33:49;12.20;99.90
15596;DHT22;7898;48.658;9.068;2022-08-07T03:36:17;12.20;99.90
15596;DHT22;7898;48.658;9.068;2022-08-07T03:38:47;12.10;99.90
15596;DHT22;7898;48.658;9.068;2022-08-07T03:41:14;12.10;99.90
15596;DHT22;7898;48.658;9.068;2022-08-07T03:43:42;12.00;99.90
15596;DHT22;7898;48.658;9.068;2022-08-07T03:46:09;11.90;99.90
15596;DHT22;7898;48.658;9.068;2022-08-07T03:48:37;11.80;99.90
15596;DHT22;7898;48.658;9.068;2022-08-07T03:51:07;11.80;99.90
15596;DHT22;7898;48.658;9.068;2022-08-07T03:53:34;11.80;99.90
15596;DHT22;7898;48.658;9.068;2022-08-07T03:56:03;11.80;99.90
15596;DHT22;7898;48.658;9.068;2022-08-07T03:58:30;11.80;99.90
15596;DHT22;7898;48.658;9.068;2022-08-07T04:00:58;11.80;99.90
15596;DHT22;7898;48.658;9.068;2022-08-07T04:03:25;11.80;99.90
15596;DHT22;7898;48.658;9.068;2022-08-07T04:05:52;11.80;99.90
15596;DHT22;7898;48.658;9.068;2022-08-07T04:08:21;11.80;99.90
15596;DHT22;7898;48.658;9.068;2022-08-07T04:10:48;11.90;99.90
15596;DHT22;7898;48.658;9.068;2022-08-07T04:13:16;11.90;99.90
15596;DHT22;7898;48.658;9.068;2022-08-07T04:15:44;11.90;99.90
15596;DHT22;7898;48.658;9.068;2022-08-07T04:18:12;11.90;99.90
15596;DHT22;7898;48.658;9.068;2022-08-07T04:20:39;12.00;99.90
15596;DHT22;7898;48.658;9.068;2022-08-07T04:23:07;12.00;99.90
15596;DHT22;7898;48.658;9.068;2022-08-07T04:25:37;12.00;99.90
15596;DHT22;7898;48.658;9.068;2022-08-07T04:28:04;12.10;99.90
15596;DHT22;7898;48.658;9.068;2022-08-07T04:30:32;12.10;99.90
15596;DHT22;7898;48.658;9.068;2022-08-07T04:32:59;12.20;99.90
15596;DHT22;7898;48.658;9.068;2022-08-07T04:35:27;12.20;99.90
15596;DHT22;7898;48.658;9.068;2022-08-07T04:37:54;12.30;99.90
15596;DHT22;7898;48.658;9.068;2022-08-07T04:40:21;12.40;99.90
15596;DHT22;7898;48.658;9.068;2022-08-07T04:42:50;12.40;99.90
15596;DHT22;7898;48.658;9.068;2022-08-07T04:45:16;12.50;99.90
15596;DHT22;7898;48.658;9.068;2022-08-07T04:47:53;12.60;99.90
15596;DHT22;7898;48.658;9.068;2022-08-07T04:50:27;12.60;99.90
15596;DHT22;7898;48.658;9.068;2022-08-07T04:53:01;12.70;99.90
15596;DHT22;7898;48.658;9.068;2022-08-07T04:55:36;12.70;99.90
15596;DHT22;7898;48.658;9.068;2022-08-07T04:58:11;12.70;99.90
15596;DHT22;7898;48.658;9.068;2022-08-07T05:00:46;12.80;99.90
15596;DHT22;7898;48.658;9.068;2022-08-07T05:03:20;12.90;99.90
15596;DHT22;7898;48.658;9.068;2022-08-07T05:05:54;13.00;99.90
15596;DHT22;7898;48.658;9.068;2022-08-07T05:08:25;12.90;99.90
15596;DHT22;7898;48.658;9.068;2022-08-07T05:10:58;13.00;99.90
15596;DHT22;7898;48.658;9.068;2022-08-07T05:13:31;13.10;99.90
15596;DHT22;7898;48.658;9.068;2022-08-07T05:16:03;13.20;99.90
15596;DHT22;7898;48.658;9.068;2022-08-07T05:18:33;13.40;99.90
15596;DHT22;7898;48.658;9.068;2022-08-07T05:21:02;13.50;99.90
15596;DHT22;7898;48.658;9.068;2022-08-07T05:23:32;13.60;99.90
15596;DHT22;7898;48.658;9.068;2022-08-07T05:26:03;13.80;99.90
15596;DHT22;7898;48.658;9.068;2022-08-07T05:28:34;13.90;99.90
15596;DHT22;7898;48.658;9.068;2022-08-07T05:31:01;14.10;99.90
15596;DHT22;7898;48.658;9.068;2022-08-07T05:33:29;14.20;99.90
15596;DHT22;7898;48.658;9.068;2022-08-07T05:35:57;14.40;99.90
15596;DHT22;7898;48.658;9.068;2022-08-07T05:38:25;14.50;99.90
15596;DHT22;7898;48.658;9.068;2022-08-07T05:40:52;14.60;99.90
15596;DHT22;7898;48.658;9.068;2022-08-07T05:43:20;14.80;99.90
15596;DHT22;7898;48.658;9.068;2022-08-07T05:45:49;15.00;99.90
15596;DHT22;7898;48.658;9.068;2022-08-07T05:48:17;15.20;99.90
15596;DHT22;7898;48.658;9.068;2022-08-07T05:50:45;15.30;99.90
15596;DHT22;7898;48.658;9.068;2022-08-07T05:53:13;15.50;99.90
15596;DHT22;7898;48.658;9.068;2022-08-07T05:55:41;15.70;99.90
15596;DHT22;7898;48.658;9.068;2022-08-07T05:58:09;15.90;99.90
15596;DHT22;7898;48.658;9.068;2022-08-07T06:00:38;16.10;99.90
15596;DHT22;7898;48.658;9.068;2022-08-07T06:03:08;16.20;99.90
15596;DHT22;7898;48.658;9.068;2022-08-07T06:05:36;16.40;99.90
15596;DHT22;7898;48.658;9.068;2022-08-07T06:08:04;16.60;99.90
15596;DHT22;7898;48.658;9.068;2022-08-07T06:10:31;16.80;99.90
15596;DHT22;7898;48.658;9.068;2022-08-07T06:12:59;17.00;99.90
15596;DHT22;7898;48.658;9.068;2022-08-07T06:15:28;16.70;99.90
15596;DHT22;7898;48.658;9.068;2022-08-07T06:17:58;17.30;99.90
15596;DHT22;7898;48.658;9.068;2022-08-07T06:20:27;17.50;99.90
15596;DHT22;7898;48.658;9.068;2022-08-07T06:22:55;17.70;99.90
15596;DHT22;7898;48.658;9.068;2022-08-07T06:25:22;17.80;99.90
15596;DHT22;7898;48.658;9.068;2022-08-07T06:27:49;18.00;99.90
15596;DHT22;7898;48.658;9.068;2022-08-07T06:30:16;18.20;99.90
15596;DHT22;7898;48.658;9.068;2022-08-07T06:32:43;18.40;99.90
15596;DHT22;7898;48.658;9.068;2022-08-07T06:35:10;18.60;99.90
15596;DHT22;7898;48.658;9.068;2022-08-07T06:37:38;18.80;99.90
15596;DHT22;7898;48.658;9.068;2022-08-07T06:40:06;19.00;99.90
15596;DHT22;7898;48.658;9.068;2022-08-07T06:42:35;19.10;99.90
15596;DHT22;7898;48.658;9.068;2022-08-07T06:45:05;19.30;99.90
15596;DHT22;7898;48.658;9.068;2022-08-07T06:47:33;19.40;99.90
15596;DHT22;7898;48.658;9.068;2022-08-07T06:50:00;19.60;99.90
15596;DHT22;7898;48.658;9.068;2022-08-07T06:52:33;19.90;99.90
15596;DHT22;7898;48.658;9.068;2022-08-07T06:55:03;20.30;99.90
15596;DHT22;7898;48.658;9.068;2022-08-07T06:57:32;20.70;99.90
15596;DHT22;7898;48.658;9.068;2022-08-07T07:00:00;21.20;99.90
15596;DHT22;7898;48.658;9.068;2022-08-07T07:02:27;21.70;99.90
15596;DHT22;7898;48.658;9.068;2022-08-07T07:04:55;22.10;99.90
15596;DHT22;7898;48.658;9.068;2022-08-07T07:07:22;22.60;99.90
15596;DHT22;7898;48.658;9.068;2022-08-07T07:09:50;23.10;99.90
15596;DHT22;7898;48.658;9.068;2022-08-07T07:12:25;23.60;99.90
15596;DHT22;7898;48.658;9.068;2022-08-07T07:15:00;23.60;99.90
15596;DHT22;7898;48.658;9.068;2022-08-07T07:17:34;23.40;99.90
15596;DHT22;7898;48.658;9.068;2022-08-07T07:20:07;23.60;99.90
15596;DHT22;7898;48.658;9.068;2022-08-07T07:22:36;24.00;99.90
15596;DHT22;7898;48.658;9.068;2022-08-07T07:25:04;24.50;99.90
15596;DHT22;7898;48.658;9.068;2022-08-07T07:27:36;24.60;99.90
15596;DHT22;7898;48.658;9.068;2022-08-07T07:30:06;24.80;99.90
15596;DHT22;7898;48.658;9.068;2022-08-07T07:32:36;24.50;99.90
15596;DHT22;7898;48.658;9.068;2022-08-07T07:35:07;24.60;99.90
15596;DHT22;7898;48.658;9.068;2022-08-07T07:37:35;24.50;99.90
15596;DHT22;7898;48.658;9.068;2022-08-07T07:40:07;24.20;99.90
15596;DHT22;7898;48.658;9.068;2022-08-07T07:42:38;24.00;99.90
15596;DHT22;7898;48.658;9.068;2022-08-07T07:45:07;24.00;99.90
15596;DHT22;7898;48.658;9.068;2022-08-07T07:47:40;24.20;99.90
15596;DHT22;7898;48.658;9.068;2022-08-07T07:50:09;24.20;99.90
15596;DHT22;7898;48.658;9.068;2022-08-07T07:52:37;24.20;99.90
15596;DHT22;7898;48.658;9.068;2022-08-07T07:55:05;24.10;99.90
15596;DHT22;7898;48.658;9.068;2022-08-07T07:57:34;24.30;99.90
15596;DHT22;7898;48.658;9.068;2022-08-07T08:00:04;24.60;99.90
15596;DHT22;7898;48.658;9.068;2022-08-07T08:02:33;24.90;99.90
15596;DHT22;7898;48.658;9.068;2022-08-07T08:05:02;24.80;99.90
15596;DHT22;7898;48.658;9.068;2022-08-07T08:07:30;24.70;99.90
15596;DHT22;7898;48.658;9.068;2022-08-07T08:09:59;24.70;99.90
15596;DHT22;7898;48.658;9.068;2022-08-07T08:12:28;24.30;99.90
15596;DHT22;7898;48.658;9.068;2022-08-07T08:14:55;24.40;99.90
15596;DHT22;7898;48.658;9.068;2022-08-07T08:17:25;24.60;99.90
15596;DHT22;7898;48.658;9.068;2022-08-07T08:19:55;24.70;99.90
15596;DHT22;7898;48.658;9.068;2022-08-07T08:22:24;24.40;99.90
15596;DHT22;7898;48.658;9.068;2022-08-07T08:25:24;24.10;99.90
15596;DHT22;7898;48.658;9.068;2022-08-07T08:28:14;23.90;99.90
15596;DHT22;7898;48.658;9.068;2022-08-07T08:30:44;23.90;99.90
15596;DHT22;7898;48.658;9.068;2022-08-07T08:33:14;23.80;99.90
15596;DHT22;7898;48.658;9.068;2022-08-07T08:35:45;23.50;99.90
15596;DHT22;7898;48.658;9.068;2022-08-07T08:38:14;23.10;99.90
15596;DHT22;7898;48.658;9.068;2022-08-07T08:40:47;23.10;99.90
15596;DHT22;7898;48.658;9.068;2022-08-07T08:43:18;23.10;99.90
15596;DHT22;7898;48.658;9.068;2022-08-07T08:45:56;22.90;99.80
15596;DHT22;7898;48.658;9.068;2022-08-07T08:48:34;22.90;99.90
15596;DHT22;7898;48.658;9.068;2022-08-07T08:51:06;23.10;99.90
15596;DHT22;7898;48.658;9.068;2022-08-07T08:53:40;23.10;99.90
15596;DHT22;7898;48.658;9.068;2022-08-07T08:56:11;22.80;99.90
15596;DHT22;7898;48.658;9.068;2022-08-07T08:58:48;22.80;99.90
15596;DHT22;7898;48.658;9.068;2022-08-07T09:01:21;22.90;99.90
15596;DHT22;7898;48.658;9.068;2022-08-07T09:03:55;23.00;99.90
15596;DHT22;7898;48.658;9.068;2022-08-07T09:06:38;23.20;99.90
15596;DHT22;7898;48.658;9.068;2022-08-07T09:09:16;23.50;99.90
15596;DHT22;7898;48.658;9.068;2022-08-07T09:11:52;23.70;99.90
15596;DHT22;7898;48.658;9.068;2022-08-07T09:14:30;23.90;99.90
15596;DHT22;7898;48.658;9.068;2022-08-07T09:17:03;24.10;99.90
15596;DHT22;7898;48.658;9.068;2022-08-07T09:19:47;23.90;99.60
15596;DHT22;7898;48.658;9.068;2022-08-07T09:22:26;23.70;99.90
15596;DHT22;7898;48.658;9.068;2022-08-07T09:25:01;23.90;99.90
15596;DHT22;7898;48.658;9.068;2022-08-07T09:27:39;24.20;99.90
15596;DHT22;7898;48.658;9.068;2022-08-07T09:30:09;24.50;99.20
15596;DHT22;7898;48.658;9.068;2022-08-07T09:32:49;24.70;98.20
15596;DHT22;7898;48.658;9.068;2022-08-07T09:35:27;24.70;97.80
15596;DHT22;7898;48.658;9.068;2022-08-07T09:38:00;24.70;98.00
15596;DHT22;7898;48.658;9.068;2022-08-07T09:40:36;24.80;97.90
15596;DHT22;7898;48.658;9.068;2022-08-07T09:43:21;24.80;98.00
15596;DHT22;7898;48.658;9.068;2022-08-07T09:45:56;24.90;97.20
15596;DHT22;7898;48.658;9.068;2022-08-07T09:48:33;25.00;98.20
15596;DHT22;7898;48.658;9.068;2022-08-07T09:51:14;25.10;97.60
15596;DHT22;7898;48.658;9.068;2022-08-07T09:53:45;25.00;96.30
15596;DHT22;7898;48.658;9.068;2022-08-07T09:56:36;24.50;97.40
15596;DHT22;7898;48.658;9.068;2022-08-07T09:59:19;24.10;96.30
15596;DHT22;7898;48.658;9.068;2022-08-07T10:02:10;23.60;97.30
15596;DHT22;7898;48.658;9.068;2022-08-07T10:07:54;23.70;97.10
15596;DHT22;7898;48.658;9.068;2022-08-07T10:10:29;23.90;95.50
15596;DHT22;7898;48.658;9.068;2022-08-07T10:13:13;24.10;94.70
15596;DHT22;7898;48.658;9.068;2022-08-07T10:15:57;24.30;94.90
15596;DHT22;7898;48.658;9.068;2022-08-07T10:18:42;24.50;93.50
15596;DHT22;7898;48.658;9.068;2022-08-07T10:21:25;24.40;94.20
15596;DHT22;7898;48.658;9.068;2022-08-07T10:24:16;24.40;94.20
15596;DHT22;7898;48.658;9.068;2022-08-07T10:26:56;24.30;94.90
15596;DHT22;7898;48.658;9.068;2022-08-07T10:29:46;24.10;94.00
15596;DHT22;7898;48.658;9.068;2022-08-07T10:32:42;23.90;94.40
15596;DHT22;7898;48.658;9.068;2022-08-07T10:35:23;24.00;94.80
15596;DHT22;7898;48.658;9.068;2022-08-07T10:38:01;24.30;94.20
15596;DHT22;7898;48.658;9.068;2022-08-07T10:40:37;24.40;94.10
15596;DHT22;7898;48.658;9.068;2022-08-07T10:43:11;24.60;94.30
15596;DHT22;7898;48.658;9.068;2022-08-07T10:45:47;24.70;92.60
15596;DHT22;7898;48.658;9.068;2022-08-07T10:48:30;24.90;92.70
15596;DHT22;7898;48.658;9.068;2022-08-07T10:51:06;25.10;91.60
15596;DHT22;7898;48.658;9.068;2022-08-07T10:53:40;25.00;91.20
15596;DHT22;7898;48.658;9.068;2022-08-07T10:56:21;24.80;92.10
15596;DHT22;7898;48.658;9.068;2022-08-07T10:59:06;24.70;91.80
15596;DHT22;7898;48.658;9.068;2022-08-07T11:01:40;24.60;91.50
15596;DHT22;7898;48.658;9.068;2022-08-07T11:04:19;24.60;92.60
15596;DHT22;7898;48.658;9.068;2022-08-07T11:07:06;24.70;92.00
15596;DHT22;7898;48.658;9.068;2022-08-07T11:09:43;24.80;93.10
15596;DHT22;7898;48.658;9.068;2022-08-07T11:12:16;25.00;92.90
15596;DHT22;7898;48.658;9.068;2022-08-07T11:14:48;25.10;92.30
15596;DHT22;7898;48.658;9.068;2022-08-07T11:17:23;25.10;92.60
15596;DHT22;7898;48.658;9.068;2022-08-07T11:19:56;25.10;92.30
15596;DHT22;7898;48.658;9.068;2022-08-07T11:22:27;25.00;91.90
15596;DHT22;7898;48.658;9.068;2022-08-07T11:25:00;24.90;91.60
15596;DHT22;7898;48.658;9.068;2022-08-07T11:27:39;24.80;91.80
15596;DHT22;7898;48.658;9.068;2022-08-07T11:30:12;24.90;92.20
15596;DHT22;7898;48.658;9.068;2022-08-07T11:32:44;24.90;91.80
15596;DHT22;7898;48.658;9.068;2022-08-07T11:35:19;24.90;91.60
15596;DHT22;7898;48.658;9.068;2022-08-07T11:37:58;25.00;91.80
15596;DHT22;7898;48.658;9.068;2022-08-07T11:40:35;25.10;91.50
15596;DHT22;7898;48.658;9.068;2022-08-07T11:43:12;25.20;91.30
15596;DHT22;7898;48.658;9.068;2022-08-07T11:46:00;25.10;90.90
15596;DHT22;7898;48.658;9.068;2022-08-07T11:49:05;25.10;91.30
15596;DHT22;7898;48.658;9.068;2022-08-07T11:51:50;25.10;89.60
15596;DHT22;7898;48.658;9.068;2022-08-07T11:54:32;25.00;90.20
15596;DHT22;7898;48.658;9.068;2022-08-07T11:57:11;25.10;90.90
15596;DHT22;7898;48.658;9.068;2022-08-07T12:00:09;25.20;90.30
15596;DHT22;7898;48.658;9.068;2022-08-07T12:03:14;25.10;88.30
15596;DHT22;7898;48.658;9.068;2022-08-07T12:05:56;25.10;90.80
15596;DHT22;7898;48.658;9.068;2022-08-07T12:08:28;25.20;89.60
15596;DHT22;7898;48.658;9.068;2022-08-07T12:10:58;25.00;89.80
15596;DHT22;7898;48.658;9.068;2022-08-07T12:13:28;24.90;91.80
15596;DHT22;7898;48.658;9.068;2022-08-07T12:16:02;24.90;90.60
15596;DHT22;7898;48.658;9.068;2022-08-07T12:18:35;25.00;91.10
15596;DHT22;7898;48.658;9.068;2022-08-07T12:21:15;25.10;91.30
15596;DHT22;7898;48.658;9.068;2022-08-07T12:23:47;25.20;90.80
15596;DHT22;7898;48.658;9.068;2022-08-07T12:26:23;25.20;90.50
15596;DHT22;7898;48.658;9.068;2022-08-07T12:28:58;25.10;90.90
15596;DHT22;7898;48.658;9.068;2022-08-07T12:31:34;25.00;91.20
15596;DHT22;7898;48.658;9.068;2022-08-07T12:34:03;24.90;90.40
15596;DHT22;7898;48.658;9.068;2022-08-07T12:36:32;24.70;90.20
15596;DHT22;7898;48.658;9.068;2022-08-07T12:39:02;24.70;91.60
15596;DHT22;7898;48.658;9.068;2022-08-07T12:41:31;24.80;91.60
15596;DHT22;7898;48.658;9.068;2022-08-07T12:44:03;24.80;91.00
15596;DHT22;7898;48.658;9.068;2022-08-07T12:46:42;24.90;91.50
15596;DHT22;7898;48.658;9.068;2022-08-07T12:49:20;25.00;91.10
15596;DHT22;7898;48.658;9.068;2022-08-07T12:51:50;25.20;91.80
15596;DHT22;7898;48.658;9.068;2022-08-07T12:54:25;25.20;91.20
15596;DHT22;7898;48.658;9.068;2022-08-07T12:56:55;25.30;91.30
15596;DHT22;7898;48.658;9.068;2022-08-07T12:59:27;25.40;90.50
15596;DHT22;7898;48.658;9.068;2022-08-07T13:02:14;25.50;90.30
15596;DHT22;7898;48.658;9.068;2022-08-07T13:05:05;25.60;92.20
15596;DHT22;7898;48.658;9.068;2022-08-07T13:07:49;25.60;90.90
15596;DHT22;7898;48.658;9.068;2022-08-07T13:10:33;25.60;91.10
15596;DHT22;7898;48.658;9.068;2022-08-07T13:13:26;25.50;90.50
15596;DHT22;7898;48.658;9.068;2022-08-07T13:15:59;25.60;90.70
15596;DHT22;7898;48.658;9.068;2022-08-07T13:18:38;25.60;92.30
15596;DHT22;7898;48.658;9.068;2022-08-07T13:21:13;26.00;91.30
15596;DHT22;7898;48.658;9.068;2022-08-07T13:23:46;26.10;90.40
15596;DHT22;7898;48.658;9.068;2022-08-07T13:26:25;26.10;90.70
15596;DHT22;7898;48.658;9.068;2022-08-07T13:29:00;26.20;90.30
15596;DHT22;7898;48.658;9.068;2022-08-07T13:31:34;26.40;91.20
15596;DHT22;7898;48.658;9.068;2022-08-07T13:34:12;26.50;88.70
15596;DHT22;7898;48.658;9.068;2022-08-07T13:36:44;26.50;89.40
15596;DHT22;7898;48.658;9.068;2022-08-07T13:39:18;26.50;89.40
15596;DHT22;7898;48.658;9.068;2022-08-07T13:41:49;26.30;88.80
15596;DHT22;7898;48.658;9.068;2022-08-07T13:44:21;26.10;90.50
15596;DHT22;7898;48.658;9.068;2022-08-07T13:46:51;26.00;88.90
15596;DHT22;7898;48.658;9.068;2022-08-07T13:49:23;26.00;90.60
15596;DHT22;7898;48.658;9.068;2022-08-07T13:51:51;26.40;89.80
15596;DHT22;7898;48.658;9.068;2022-08-07T13:54:26;26.80;90.10
15596;DHT22;7898;48.658;9.068;2022-08-07T13:56:55;27.30;88.20
15596;DHT22;7898;48.658;9.068;2022-08-07T13:59:27;27.50;89.50
15596;DHT22;7898;48.658;9.068;2022-08-07T14:01:58;28.00;90.00
15596;DHT22;7898;48.658;9.068;2022-08-07T14:04:43;28.30;86.80
15596;DHT22;7898;48.658;9.068;2022-08-07T14:07:11;28.50;85.80
15596;DHT22;7898;48.658;9.068;2022-08-07T14:09:40;28.30;86.40
15596;DHT22;7898;48.658;9.068;2022-08-07T14:12:10;28.10;86.80
15596;DHT22;7898;48.658;9.068;2022-08-07T14:14:42;28.20;87.60
15596;DHT22;7898;48.658;9.068;2022-08-07T14:17:11;28.10;85.10
15596;DHT22;7898;48.658;9.068;2022-08-07T14:19:46;27.70;88.00
15596;DHT22;7898;48.658;9.068;2022-08-07T14:22:17;28.00;86.90
15596;DHT22;7898;48.658;9.068;2022-08-07T14:24:50;28.50;87.60
15596;DHT22;7898;48.658;9.068;2022-08-07T14:27:25;29.20;87.40
15596;DHT22;7898;48.658;9.068;2022-08-07T14:29:56;29.70;85.20
15596;DHT22;7898;48.658;9.068;2022-08-07T14:32:23;29.90;84.20
15596;DHT22;7898;48.658;9.068;2022-08-07T14:34:56;30.40;82.60
15596;DHT22;7898;48.658;9.068;2022-08-07T14:37:26;31.00;80.80
15596;DHT22;7898;48.658;9.068;2022-08-07T14:39:54;31.80;80.10
15596;DHT22;7898;48.658;9.068;2022-08-07T14:42:25;31.70;78.00
15596;DHT22;7898;48.658;9.068;2022-08-07T14:44:56;31.10;80.10
15596;DHT22;7898;48.658;9.068;2022-08-07T14:47:24;31.70;78.50
15596;DHT22;7898;48.658;9.068;2022-08-07T14:49:54;32.20;80.60
15596;DHT22;7898;48.658;9.068;2022-08-07T14:52:23;33.00;75.50
15596;DHT22;7898;48.658;9.068;2022-08-07T14:54:52;33.40;74.60
15596;DHT22;7898;48.658;9.068;2022-08-07T14:57:23;33.60;72.90
15596;DHT22;7898;48.658;9.068;2022-08-07T14:59:51;33.90;74.50
15596;DHT22;7898;48.658;9.068;2022-08-07T15:02:22;34.10;72.60
15596;DHT22;7898;48.658;9.068;2022-08-07T15:04:50;33.90;72.30
15596;DHT22;7898;48.658;9.068;2022-08-07T15:07:19;33.60;72.80
15596;DHT22;7898;48.658;9.068;2022-08-07T15:09:52;33.80;74.70
15596;DHT22;7898;48.658;9.068;2022-08-07T15:12:23;34.00;69.70
15596;DHT22;7898;48.658;9.068;2022-08-07T15:14:52;34.20;70.80
15596;DHT22;7898;48.658;9.068;2022-08-07T15:17:24;34.60;69.30
15596;DHT22;7898;48.658;9.068;2022-08-07T15:19:59;35.40;71.60
15596;DHT22;7898;48.658;9.068;2022-08-07T15:22:32;35.00;68.90
15596;DHT22;7898;48.658;9.068;2022-08-07T15:25:11;34.10;70.00
15596;DHT22;7898;48.658;9.068;2022-08-07T15:27:40;33.80;72.30
15596;DHT22;7898;48.658;9.068;2022-08-07T15:30:11;34.20;70.10
15596;DHT22;7898;48.658;9.068;2022-08-07T15:32:40;34.30;70.10
15596;DHT22;7898;48.658;9.068;2022-08-07T15:35:13;34.40;69.70
15596;DHT22;7898;48.658;9.068;2022-08-07T15:37:42;35.10;69.00
15596;DHT22;7898;48.658;9.068;2022-08-07T15:40:14;35.70;68.80
15596;DHT22;7898;48.658;9.068;2022-08-07T15:42:53;35.80;68.10
15596;DHT22;7898;48.658;9.068;2022-08-07T15:45:33;35.80;69.00
15596;DHT22;7898;48.658;9.068;2022-08-07T15:48:04;35.60;67.50
15596;DHT22;7898;48.658;9.068;2022-08-07T15:50:36;35.30;66.90
15596;DHT22;7898;48.658;9.068;2022-08-07T15:53:07;34.70;68.30
15596;DHT22;7898;48.658;9.068;2022-08-07T15:55:39;34.70;69.90
15596;DHT22;7898;48.658;9.068;2022-08-07T15:58:08;34.70;68.50
15596;DHT22;7898;48.658;9.068;2022-08-07T16:00:38;35.00;70.00
15596;DHT22;7898;48.658;9.068;2022-08-07T16:03:10;34.80;68.00
15596;DHT22;7898;48.658;9.068;2022-08-07T16:05:44;34.20;67.00
15596;DHT22;7898;48.658;9.068;2022-08-07T16:08:14;32.80;70.30
15596;DHT22;7898;48.658;9.068;2022-08-07T16:10:46;32.00;71.40
15596;DHT22;7898;48.658;9.068;2022-08-07T16:16:37;31.70;74.60
15596;DHT22;7898;48.658;9.068;2022-08-07T16:19:44;31.80;73.60
15596;DHT22;7898;48.658;9.068;2022-08-07T16:25:35;31.10;72.80